Linwood, Wisconsin
Current Conditions -  °F | °C
As of 12:55 AM on Thursday 27 Nov 2014 (Local Time) from KSTE Reporting Station
Overcast Overcast  
Wind Chill: 11°   Ceiling: 2200
Heat Index: 19°   Visibility: 10mi
Dew Point: 15°   Wind: 6mph
Humidity: 83%   Direction: 320°NW
Pressure: 30.23"   Gusts: NA
Location:  44.5531°N, 89.5186°W
Report Text: KSTE 270655Z AUTO 32005KT 10SM OVC022 M07/M09 A3023 RMK AO2 T10701095
Loading
Personal Weather Stations






























Interactive Weather Map New forecast layout! Learn more

10-Day Weather Forecast

Advertisements
Track Severe Weather on mobile